Time;durP1;ratioP1;P1;durP2;ratioP2;P2;SDS_P1;SDS_P2;PMS_P1;PMS_P2;Temp;Humidity;BMP_temperature;BMP_pressure;BME280_temperature;BME280_humidity;BME280_pressure;Samples;Min_cycle;Max_cycle;Signal;HPM_P1;HPM_P2
2021/12/20 00:01:51;;;;;;;26.30;16.80;;;;;;;7.14;56.18;95964.56;5064824;28;20025;-65
2021/12/20 00:04:16;;;;;;;24.23;16.95;;;;;;;7.79;54.55;95942.66;5089579;28;20099;-65
2021/12/20 00:06:42;;;;;;;25.55;16.10;;;;;;;8.05;54.41;95961.16;5073604;28;20124;-65
2021/12/20 00:09:07;;;;;;;24.33;16.55;;;;;;;7.82;53.61;95933.34;5091371;28;20031;-65
2021/12/20 00:11:33;;;;;;;24.70;15.95;;;;;;;8.15;53.73;95957.72;5091982;28;20077;-65
2021/12/20 00:13:58;;;;;;;23.65;15.13;;;;;;;8.13;53.56;95939.41;5073786;28;20016;-65
2021/12/20 00:16:23;;;;;;;22.98;14.98;;;;;;;6.43;56.78;95931.53;5085254;28;20473;-65
2021/12/20 00:18:49;;;;;;;27.83;16.17;;;;;;;6.38;57.77;95946.56;5087885;28;20486;-65
2021/12/20 00:21:14;;;;;;;29.55;17.30;;;;;;;6.93;56.56;95955.78;5073096;28;20031;-65
2021/12/20 00:23:40;;;;;;;28.55;17.48;;;;;;;7.00;56.57;95951.81;5073528;28;20023;-65
2021/12/20 00:26:05;;;;;;;23.40;16.20;;;;;;;6.64;58.25;95953.56;5073596;28;20103;-65
2021/12/20 00:28:31;;;;;;;24.38;16.45;;;;;;;7.13;56.21;95924.09;5072928;28;20413;-66
2021/12/20 00:30:56;;;;;;;27.48;17.08;;;;;;;7.60;55.19;95931.00;5089075;28;20082;-65
2021/12/20 00:33:22;;;;;;;31.52;19.05;;;;;;;7.88;54.24;95928.84;5084214;28;20039;-65
2021/12/20 00:35:48;;;;;;;24.08;16.65;;;;;;;7.30;55.66;95931.78;5089938;28;20449;-65
2021/12/20 00:40:58;;;;;;;27.60;16.98;;;;;;;7.45;54.46;95952.97;5090979;28;20039;-65
2021/12/20 00:43:24;;;;;;;25.63;17.77;;;;;;;7.87;54.68;95943.94;5073041;28;20028;-65
2021/12/20 00:45:49;;;;;;;23.27;15.82;;;;;;;7.10;55.48;95943.13;5091302;28;20031;-64
2021/12/20 00:48:15;;;;;;;28.38;17.20;;;;;;;6.97;56.03;95899.47;5074973;28;20036;-65
2021/12/20 00:50:42;;;;;;;29.02;17.08;;;;;;;6.58;58.01;95940.59;5089563;28;20485;-64
2021/12/20 00:53:09;;;;;;;26.10;17.02;;;;;;;7.21;56.51;95928.84;5072330;28;20024;-65
2021/12/20 00:55:34;;;;;;;26.90;17.13;;;;;;;7.37;54.89;95928.84;5072248;28;20031;-65
2021/12/20 00:58:00;;;;;;;27.63;17.40;;;;;;;7.84;54.76;95930.47;5090407;28;20487;-65
2021/12/20 01:00:32;;;;;;;25.13;16.55;;;;;;;8.00;54.51;95942.63;5072291;28;20406;-65
2021/12/20 01:02:57;;;;;;;26.25;16.77;;;;;;;7.91;53.42;95928.31;5082627;28;20032;-66
2021/12/20 01:05:24;;;;;;;24.60;15.88;;;;;;;7.48;54.32;95904.78;5071246;28;20027;-66
2021/12/20 01:07:50;;;;;;;27.45;17.02;;;;;;;7.49;54.14;95895.78;5090656;28;20028;-64
2021/12/20 01:10:16;;;;;;;26.08;15.63;;;;;;;7.44;54.55;95903.72;5089987;28;20043;-64
2021/12/20 01:12:46;;;;;;;23.25;15.23;;;;;;;7.95;53.71;95924.09;5090851;28;20113;-66
2021/12/20 01:15:15;;;;;;;24.42;16.05;;;;;;;7.59;54.22;95921.47;5072471;28;20020;-64
2021/12/20 01:17:40;;;;;;;22.98;15.13;;;;;;;6.22;57.41;95925.38;5083180;28;20032;-65
2021/12/20 01:20:07;;;;;;;26.25;15.38;;;;;;;6.09;58.51;95939.03;5071449;28;20039;-65
2021/12/20 01:22:33;;;;;;;25.30;16.55;;;;;;;6.37;58.81;95931.78;5072375;28;20354;-64
2021/12/20 01:24:58;;;;;;;26.42;15.88;;;;;;;6.40;58.13;95947.94;5090693;28;20042;-64
2021/12/20 01:27:24;;;;;;;22.95;15.00;;;;;;;6.08;59.05;95916.31;5090451;28;20077;-64
2021/12/20 01:29:49;;;;;;;24.73;16.27;;;;;;;6.13;58.99;95926.91;5071535;28;20032;-64
2021/12/20 01:32:15;;;;;;;24.92;15.07;;;;;;;5.82;59.74;95952.28;5066620;28;20020;-64
2021/12/20 01:34:41;;;;;;;25.33;15.70;;;;;;;5.28;61.76;95946.31;5087546;28;20055;-65
2021/12/20 01:37:06;;;;;;;26.85;16.08;;;;;;;5.83;60.10;95953.88;5071812;28;20055;-65
2021/12/20 01:39:32;;;;;;;26.95;15.55;;;;;;;6.01;59.60;95925.50;5071364;28;20508;-65
2021/12/20 01:41:59;;;;;;;28.75;17.17;;;;;;;6.19;58.91;95927.72;5090253;28;20024;-65
2021/12/20 01:44:24;;;;;;;25.75;15.90;;;;;;;5.67;60.14;95912.59;5090249;28;20027;-65
2021/12/20 01:46:50;;;;;;;25.05;15.05;;;;;;;5.81;60.00;95929.59;5066821;28;20046;-65
2021/12/20 01:49:17;;;;;;;28.33;17.13;;;;;;;6.75;57.99;95923.44;5086835;28;20020;-65
2021/12/20 01:52:02;;;;;;;27.42;16.02;;;;;;;6.72;57.28;95945.13;5071321;28;20024;-67
2021/12/20 01:54:28;;;;;;;27.83;17.63;;;;;;;6.74;57.10;95915.78;5072092;28;20024;-68
2021/12/20 01:56:54;;;;;;;25.60;15.77;;;;;;;5.76;58.75;95881.25;5089883;28;20032;-68
2021/12/20 01:59:19;;;;;;;28.17;16.90;;;;;;;6.50;56.97;95836.19;5071183;28;20024;-68
2021/12/20 02:01:46;;;;;;;24.63;16.23;;;;;;;6.72;56.18;95867.69;5085293;28;20115;-69
2021/12/20 02:04:12;;;;;;;24.45;14.45;;;;;;;5.48;58.71;95848.88;5087453;28;20024;-69
2021/12/20 02:06:39;;;;;;;26.23;16.17;;;;;;;6.13;58.63;95931.38;5089350;28;20057;-68
2021/12/20 02:09:11;;;;;;;23.30;15.90;;;;;;;5.55;59.86;95840.72;5090085;28;20125;-68
2021/12/20 02:11:37;;;;;;;;;;;;;;;6.85;57.16;95924.53;5072695;28;20020;-68
2021/12/20 02:14:04;;;;;;;30.33;15.82;;;;;;;6.28;56.88;95856.69;5089972;28;19916;-68
2021/12/20 02:16:30;;;;;;;29.25;17.40;;;;;;;6.23;57.37;95865.41;5068914;28;20020;-68
2021/12/20 02:18:55;;;;;;;24.92;15.40;;;;;;;5.67;58.41;95831.56;5087749;28;20026;-69
2021/12/20 02:21:21;;;;;;;23.65;15.38;;;;;;;6.92;56.66;95933.03;5089659;28;20026;-69
2021/12/20 02:23:47;;;;;;;26.38;16.15;;;;;;;6.72;57.11;95925.84;5089854;28;20362;-68
2021/12/20 02:26:16;;;;;;;24.02;15.73;;;;;;;5.81;58.68;95854.88;5089847;28;20572;-69
2021/12/20 02:28:45;;;;;;;25.35;14.45;;;;;;;5.30;60.20;95834.22;5089328;28;20529;-68
2021/12/20 02:39:15;;;;;;;25.17;15.68;;;;;;;5.79;59.59;95849.06;5088737;28;20039;-68
2021/12/20 02:41:41;;;;;;;20.25;13.95;;;;;;;6.03;58.26;95894.34;5089637;28;20031;-68
2021/12/20 02:44:15;;;;;;;23.48;15.25;;;;;;;6.10;59.07;95927.44;5089486;28;20051;-68
2021/12/20 02:49:16;;;;;;;25.45;15.75;;;;;;;6.50;56.91;95844.91;5079489;28;20020;-69
2021/12/20 02:51:43;;;;;;;27.40;16.15;;;;;;;6.28;59.03;95923.53;5089238;28;20028;-68
2021/12/20 02:54:10;;;;;;;25.90;15.25;;;;;;;5.87;58.14;95822.16;5089456;28;20153;-68
2021/12/20 02:56:36;;;;;;;25.05;14.90;;;;;;;5.60;59.87;95838.13;5089498;28;20425;-68
2021/12/20 02:59:02;;;;;;;27.55;16.25;;;;;;;5.86;60.18;95905.06;5088508;28;20113;-68
2021/12/20 03:01:28;;;;;;;28.42;16.02;;;;;;;6.06;58.65;95873.50;5089191;28;20055;-68
2021/12/20 03:03:55;;;;;;;24.42;15.18;;;;;;;5.46;60.46;95837.75;5083582;28;20470;-68
2021/12/20 03:06:28;;;;;;;26.40;15.18;;;;;;;5.55;59.54;95844.16;5087741;28;20032;-68
2021/12/20 03:08:55;;;;;;;25.65;15.15;;;;;;;5.44;59.66;95842.50;5088513;28;20028;-68
2021/12/20 03:11:23;;;;;;;29.15;16.52;;;;;;;6.04;58.38;95822.81;5070886;28;20042;-67
2021/12/20 03:13:53;;;;;;;26.02;16.00;;;;;;;6.55;56.72;95841.44;5089171;28;20022;-67
2021/12/20 03:16:19;;;;;;;26.60;15.55;;;;;;;6.27;57.65;95845.34;5089110;28;20489;-68
2021/12/20 03:18:44;;;;;;;22.67;14.32;;;;;;;5.91;59.47;95927.03;5088943;28;20043;-68
2021/12/20 03:21:10;;;;;;;22.92;14.80;;;;;;;6.80;57.84;95914.75;5092545;28;20077;-67
2021/12/20 03:23:35;;;;;;;25.15;15.30;;;;;;;6.61;56.62;95816.63;5092853;28;20028;-67
2021/12/20 03:26:01;;;;;;;24.50;15.57;;;;;;;7.01;55.55;95889.94;5092862;28;20024;-67
2021/12/20 03:28:26;;;;;;;26.13;15.43;;;;;;;7.03;56.38;95916.13;5092348;28;20028;-69
2021/12/20 03:30:52;;;;;;;25.23;15.20;;;;;;;7.46;54.10;95843.38;5092374;28;20024;-69
2021/12/20 03:33:17;;;;;;;20.98;14.90;;;;;;;7.87;53.94;95914.81;5083581;28;20028;-69
2021/12/20 03:35:43;;;;;;;24.80;15.77;;;;;;;7.26;53.46;95816.91;5090572;28;20086;-69
2021/12/20 03:38:09;;;;;;;27.25;15.50;;;;;;;6.41;56.50;95864.16;5092493;28;20039;-68
2021/12/20 03:40:35;;;;;;;25.50;15.70;;;;;;;6.27;57.20;95863.03;5092375;28;20412;-69
2021/12/20 03:43:00;;;;;;;22.70;15.13;;;;;;;6.36;57.55;95821.88;5092853;28;20020;-70
2021/12/20 03:45:26;;;;;;;27.73;15.65;;;;;;;6.82;56.53;95869.56;5092612;28;20589;-69
2021/12/20 03:47:52;;;;;;;27.15;15.88;;;;;;;6.37;57.00;95849.88;5083429;28;20097;-69
2021/12/20 03:50:18;;;;;;;28.42;17.00;;;;;;;6.85;56.54;95869.81;5089019;28;20543;-68
2021/12/20 03:52:43;;;;;;;31.17;16.70;;;;;;;7.08;56.67;95915.34;5092075;28;20028;-68
2021/12/20 03:55:12;;;;;;;27.77;16.38;;;;;;;6.13;58.63;95934.81;5092264;28;20448;-68
2021/12/20 03:57:37;;;;;;;26.10;15.88;;;;;;;6.48;57.37;95899.84;5092260;28;20077;-68
2021/12/20 04:00:10;;;;;;;23.98;15.20;;;;;;;6.51;58.37;95922.34;5091491;28;20039;-69
2021/12/20 04:02:41;;;;;;;28.35;16.02;;;;;;;6.77;56.27;95831.47;5084716;28;20409;-68
2021/12/20 04:05:07;;;;;;;28.75;16.90;;;;;;;7.39;54.90;95848.16;5077231;28;20074;-69
2021/12/20 04:07:32;;;;;;;25.58;15.45;;;;;;;8.33;54.42;95926.09;5091785;28;20032;-69
2021/12/20 04:09:58;;;;;;;24.63;16.27;;;;;;;8.35;53.58;95851.63;5091263;28;20034;-67
2021/12/20 04:12:23;;;;;;;22.88;15.57;;;;;;;8.33;52.30;95825.38;5092151;28;20028;-68
2021/12/20 04:14:49;;;;;;;24.30;15.23;;;;;;;7.52;51.81;95815.84;5091829;28;20035;-68
2021/12/20 04:17:14;;;;;;;24.83;15.43;;;;;;;7.00;54.14;95871.69;5087574;28;20397;-67
2021/12/20 04:19:40;;;;;;;26.00;15.68;;;;;;;7.85;53.17;95894.97;5087572;28;20024;-67
2021/12/20 04:22:05;;;;;;;25.58;15.35;;;;;;;7.14;54.51;95856.88;5091688;28;20492;-67
2021/12/20 04:24:30;;;;;;;25.70;15.18;;;;;;;8.10;53.26;95902.84;5091939;28;20047;-67
2021/12/20 04:26:56;;;;;;;21.50;13.55;;;;;;;6.08;54.61;95823.06;5074741;28;20063;-68
2021/12/20 04:29:21;;;;;;;26.05;16.15;;;;;;;7.19;54.75;95923.03;5090955;28;20099;-67
2021/12/20 04:31:47;;;;;;;26.13;16.05;;;;;;;6.82;55.07;95862.41;5091539;28;20032;-68
2021/12/20 04:34:12;;;;;;;28.88;16.60;;;;;;;7.33;55.12;95906.66;5082816;28;20105;-67
2021/12/20 04:36:38;;;;;;;29.25;16.17;;;;;;;6.87;55.35;95861.63;5090127;28;20240;-67
2021/12/20 04:39:06;;;;;;;25.38;15.38;;;;;;;6.70;55.52;95843.34;5090712;28;20112;-69
2021/12/20 04:41:32;;;;;;;26.70;16.20;;;;;;;7.92;53.64;95903.41;5091408;28;20024;-67
2021/12/20 04:43:57;;;;;;;22.73;14.85;;;;;;;7.48;54.49;95941.84;5091167;28;20604;-68
2021/12/20 04:46:23;;;;;;;24.17;15.07;;;;;;;6.36;54.92;95843.78;5091158;28;20024;-68
2021/12/20 04:48:48;;;;;;;28.23;16.40;;;;;;;7.51;53.52;95863.75;5082964;28;20043;-67
2021/12/20 04:51:13;;;;;;;21.75;14.55;;;;;;;6.73;53.66;95867.41;5089420;28;20028;-67
2021/12/20 04:53:39;;;;;;;21.52;14.75;;;;;;;6.83;56.34;95937.25;5091002;28;20043;-67
2021/12/20 04:56:04;;;;;;;21.02;14.57;;;;;;;6.60;56.40;95941.91;5091176;28;20016;-67
2021/12/20 04:58:29;;;;;;;23.38;15.40;;;;;;;6.28;56.45;95832.91;5090885;28;20020;-67
2021/12/20 05:00:55;;;;;;;27.35;15.02;;;;;;;7.19;54.55;95843.66;5090654;28;20074;-69
2021/12/20 05:03:20;;;;;;;25.38;14.95;;;;;;;6.64;54.70;95863.69;5084788;28;20077;-71
2021/12/20 05:05:46;;;;;;;26.48;16.25;;;;;;;6.89;54.31;95836.50;5088615;28;20038;-69
2021/12/20 05:08:12;;;;;;;28.63;16.00;;;;;;;6.71;54.47;95858.94;5090755;28;20020;-69
2021/12/20 05:10:40;;;;;;;24.75;14.88;;;;;;;6.32;56.79;95906.13;5090730;28;20020;-69
2021/12/20 05:13:08;;;;;;;24.27;14.35;;;;;;;5.72;57.27;95873.03;5090981;28;20017;-69
2021/12/20 05:15:35;;;;;;;21.10;14.77;;;;;;;6.86;56.22;95920.84;5090616;28;20099;-69
2021/12/20 05:18:01;;;;;;;22.50;15.27;;;;;;;5.94;57.65;95880.88;5085028;28;20020;-69
2021/12/20 05:20:27;;;;;;;27.25;15.13;;;;;;;6.51;55.92;95885.34;5089951;28;20031;-69
2021/12/20 05:22:54;;;;;;;22.67;14.88;;;;;;;6.32;56.21;95907.97;5090487;28;20474;-69
2021/12/20 05:25:20;;;;;;;25.52;15.80;;;;;;;6.59;55.60;95886.66;5090278;28;20022;-69
2021/12/20 05:27:46;;;;;;;25.60;15.48;;;;;;;6.27;57.83;95971.38;5091385;28;20107;-69
2021/12/20 05:30:15;;;;;;;25.27;15.48;;;;;;;6.18;57.08;95955.97;5089730;28;20055;-69
2021/12/20 05:32:41;;;;;;;25.23;16.02;;;;;;;6.43;55.66;95907.75;5085447;28;20115;-69
2021/12/20 05:35:08;;;;;;;29.95;17.20;;;;;;;6.89;54.76;95885.94;5087934;28;20467;-69
2021/12/20 05:37:34;;;;;;;25.80;15.85;;;;;;;7.51;54.68;95973.06;5090116;28;20068;-69
2021/12/20 05:40:00;;;;;;;26.38;16.70;;;;;;;7.68;53.56;95885.47;5088930;28;20077;-69
2021/12/20 05:42:31;;;;;;;27.90;16.10;;;;;;;6.44;54.90;95879.47;5090355;28;20415;-69
2021/12/20 05:44:57;;;;;;;25.77;15.68;;;;;;;7.34;54.13;95963.81;5090083;28;20054;-69
2021/12/20 05:47:22;;;;;;;26.05;16.42;;;;;;;6.55;55.28;95893.53;5088201;28;20689;-69
2021/12/20 05:49:51;;;;;;;26.10;16.50;;;;;;;6.82;55.08;95891.50;5086005;28;20036;-69
2021/12/20 05:52:17;;;;;;;28.35;16.20;;;;;;;6.61;55.41;95895.16;5089924;28;20497;-68
2021/12/20 05:54:43;;;;;;;30.33;16.55;;;;;;;6.34;56.24;95903.22;5090051;28;20032;-68
2021/12/20 05:57:08;;;;;;;29.23;17.55;;;;;;;7.29;54.09;95901.88;5089913;28;20027;-68
2021/12/20 05:59:34;;;;;;;24.52;15.50;;;;;;;6.57;55.71;95909.94;5089352;28;20032;-69
2021/12/20 06:01:59;;;;;;;27.67;15.73;;;;;;;6.15;56.18;95906.31;5089987;28;20027;-69
2021/12/20 06:04:25;;;;;;;25.27;15.77;;;;;;;6.03;57.97;95940.03;5085006;28;20028;-69
2021/12/20 06:06:50;;;;;;;29.65;16.83;;;;;;;6.06;57.28;95892.00;5088655;28;20536;-67
2021/12/20 06:09:16;;;;;;;26.17;15.95;;;;;;;6.84;55.36;95925.59;5089299;28;20076;-68
2021/12/20 06:11:41;;;;;;;26.27;16.00;;;;;;;6.57;54.85;95888.78;5089533;28;20031;-68
2021/12/20 06:14:07;;;;;;;26.75;16.77;;;;;;;6.40;55.32;95881.88;5090020;28;20027;-67
2021/12/20 06:16:32;;;;;;;25.55;16.00;;;;;;;6.68;54.58;95920.28;5089628;28;20103;-68
2021/12/20 06:18:57;;;;;;;25.67;16.13;;;;;;;6.55;55.83;95899.59;5085858;28;20038;-69
2021/12/20 06:21:23;;;;;;;30.00;17.05;;;;;;;7.02;54.92;95906.63;5089739;28;20016;-68
2021/12/20 06:23:49;;;;;;;27.98;15.98;;;;;;;7.34;53.95;95963.81;5089676;28;20020;-68
2021/12/20 06:26:14;;;;;;;25.58;17.15;;;;;;;6.54;55.51;95911.22;5089633;28;20028;-68
2021/12/20 06:28:40;;;;;;;26.40;16.85;;;;;;;6.82;55.19;95915.28;5089257;28;20036;-69
2021/12/20 06:31:05;;;;;;;28.30;17.13;;;;;;;6.95;54.83;95929.84;5089320;28;20033;-68
2021/12/20 06:33:31;;;;;;;29.83;16.88;;;;;;;6.11;56.04;95915.81;5086648;28;20047;-68
2021/12/20 06:35:56;;;;;;;29.80;17.00;;;;;;;6.32;55.35;95910.63;5087109;28;20052;-69
2021/12/20 06:38:22;;;;;;;27.90;16.83;;;;;;;6.32;55.78;95924.63;5089590;28;20081;-69
2021/12/20 06:40:50;;;;;;;29.33;16.90;;;;;;;6.22;57.29;95954.44;5089714;28;20027;-68
2021/12/20 06:43:17;;;;;;;27.38;16.10;;;;;;;5.35;57.82;95909.97;5089528;28;20024;-69
2021/12/20 06:45:42;;;;;;;32.03;17.15;;;;;;;6.35;57.64;95976.19;5089603;28;20024;-69
2021/12/20 06:48:08;;;;;;;28.10;16.52;;;;;;;6.11;58.11;95989.75;5087255;28;20032;-68
2021/12/20 06:50:33;;;;;;;26.52;16.60;;;;;;;6.60;56.69;95972.84;5078571;28;20082;-67
2021/12/20 06:52:59;;;;;;;29.30;16.27;;;;;;;6.68;57.30;96009.38;5091908;28;20385;-69
2021/12/20 06:55:25;;;;;;;29.63;16.45;;;;;;;6.81;56.63;95971.88;5074974;28;20059;-65
2021/12/20 06:57:51;;;;;;;30.95;18.00;;;;;;;7.32;54.79;95976.50;5092870;28;20035;-69
2021/12/20 07:00:17;;;;;;;25.33;16.15;;;;;;;7.12;54.91;96001.06;5092479;28;20047;-62
2021/12/20 07:02:42;;;;;;;29.10;17.33;;;;;;;7.67;54.34;96002.22;5091947;28;20031;-68
2021/12/20 07:05:08;;;;;;;27.95;16.85;;;;;;;6.59;56.09;95950.91;5072486;28;20380;-68
2021/12/20 07:07:34;;;;;;;26.92;16.50;;;;;;;6.79;56.45;95981.91;5091771;28;20024;-66
2021/12/20 07:10:01;;;;;;;28.33;17.30;;;;;;;6.76;56.34;95983.22;5092215;28;20085;-66
2021/12/20 07:12:28;;;;;;;25.60;16.90;;;;;;;7.03;55.78;95991.00;5092943;28;20103;-62
2021/12/20 07:14:54;;;;;;;30.52;17.08;;;;;;;6.89;55.21;95981.16;5092869;28;20024;-62
2021/12/20 07:17:20;;;;;;;30.15;17.55;;;;;;;7.69;53.73;95982.38;5074939;28;20035;-64
2021/12/20 07:19:46;;;;;;;28.17;17.05;;;;;;;7.34;54.72;95992.91;5082800;28;20035;-63
2021/12/20 07:22:13;;;;;;;32.38;17.83;;;;;;;7.30;54.66;95998.72;5092911;28;20104;-64
2021/12/20 07:24:38;;;;;;;28.88;17.83;;;;;;;7.60;54.45;95994.53;5092816;28;20029;-64
2021/12/20 07:27:05;;;;;;;26.98;16.58;;;;;;;8.09;52.85;95988.72;5092858;28;20032;-66
2021/12/20 07:29:30;;;;;;;29.08;17.33;;;;;;;7.65;53.34;95981.31;5091706;28;20477;-64
2021/12/20 07:31:56;;;;;;;29.23;17.65;;;;;;;7.69;53.59;95985.03;5074452;28;20020;-63
2021/12/20 07:34:21;;;;;;;27.25;17.38;;;;;;;7.54;53.96;95992.94;5083872;28;20111;-63
2021/12/20 07:36:47;;;;;;;30.60;18.08;;;;;;;7.65;53.84;95994.53;5089989;28;20020;-66
2021/12/20 07:39:12;;;;;;;24.35;16.90;;;;;;;7.53;53.95;95986.06;5073499;28;20032;-62
2021/12/20 07:41:40;;;;;;;27.73;17.45;;;;;;;8.08;52.76;95987.09;5092172;28;20024;-66
2021/12/20 07:44:06;;;;;;;27.40;17.10;;;;;;;7.18;54.70;95992.88;5092164;28;20118;-64
2021/12/20 07:46:31;;;;;;;25.80;15.95;;;;;;;6.50;56.59;95992.13;5073970;28;20035;-64
2021/12/20 07:48:57;;;;;;;28.48;16.38;;;;;;;6.95;56.40;96012.63;5065351;28;20441;-64
2021/12/20 07:51:23;;;;;;;29.23;18.00;;;;;;;7.16;55.80;96021.44;5072450;28;20467;-63
2021/12/20 07:53:48;;;;;;;33.15;18.75;;;;;;;7.25;55.36;96005.84;5092057;28;20063;-64
2021/12/20 07:56:16;;;;;;;30.55;17.55;;;;;;;8.28;53.44;96013.59;5092153;28;20028;-63
2021/12/20 07:58:42;;;;;;;24.65;16.15;;;;;;;7.93;52.79;95987.13;5073592;28;20024;-64
2021/12/20 08:01:07;;;;;;;28.58;17.45;;;;;;;8.21;53.15;96002.47;5073269;28;20545;-63
2021/12/20 08:03:34;;;;;;;29.98;18.33;;;;;;;7.03;55.20;96016.66;5084433;28;20024;-63
2021/12/20 08:06:00;;;;;;;27.70;17.70;;;;;;;7.90;53.70;96027.41;5089125;28;20020;-64
2021/12/20 08:08:26;;;;;;;29.45;17.08;;;;;;;7.95;53.29;95998.25;5091389;28;20469;-64
2021/12/20 08:10:51;;;;;;;30.33;17.83;;;;;;;8.42;51.54;95997.16;5091580;28;20446;-64
2021/12/20 08:13:16;;;;;;;30.02;17.25;;;;;;;7.51;53.79;95999.56;5091847;28;20481;-63
2021/12/20 08:15:42;;;;;;;27.08;17.65;;;;;;;7.24;54.38;95989.19;5091502;28;20027;-63
2021/12/20 08:18:08;;;;;;;29.50;17.25;;;;;;;7.13;55.01;96015.88;5088646;28;20058;-62
2021/12/20 08:20:34;;;;;;;26.52;16.92;;;;;;;7.32;54.72;96000.31;5087082;28;20119;-62
2021/12/20 08:23:01;;;;;;;29.52;17.08;;;;;;;7.30;54.86;96019.09;5091520;28;20024;-64
2021/12/20 08:25:27;;;;;;;26.05;16.73;;;;;;;7.89;53.70;96021.31;5073419;28;20466;-65
2021/12/20 08:27:53;;;;;;;24.60;16.35;;;;;;;6.75;56.04;96009.91;5073240;28;20135;-62
2021/12/20 08:30:21;;;;;;;30.10;16.77;;;;;;;6.30;58.81;96018.41;5090902;28;20055;-65
2021/12/20 08:32:46;;;;;;;30.60;16.98;;;;;;;6.05;59.01;96008.47;5091294;28;20076;-65
2021/12/20 08:35:12;;;;;;;27.30;17.15;;;;;;;6.07;59.55;96009.81;5061445;28;20031;-65
2021/12/20 08:37:39;;;;;;;27.45;16.48;;;;;;;6.75;57.69;96017.84;5090117;28;20449;-67
2021/12/20 08:40:07;;;;;;;31.13;17.30;;;;;;;6.65;57.42;96037.09;5032530;28;20090;-65
2021/12/20 08:42:32;;;;;;;24.65;16.10;;;;;;;7.29;55.36;96022.81;5032485;28;20037;-65
2021/12/20 08:44:57;;;;;;;29.65;17.27;;;;;;;6.45;57.25;96023.78;5032940;28;20772;-65
2021/12/20 08:47:23;;;;;;;28.27;17.08;;;;;;;6.82;56.54;96018.44;5050903;28;20025;-66
2021/12/20 08:49:48;;;;;;;28.05;16.90;;;;;;;7.47;55.10;96027.63;5055685;28;20036;-67
2021/12/20 08:52:15;;;;;;;29.42;16.65;;;;;;;8.11;53.20;96039.59;5071162;28;20020;-63
2021/12/20 08:54:41;;;;;;;30.02;16.60;;;;;;;6.97;56.00;96046.78;5072483;28;20561;-67
2021/12/20 08:57:07;;;;;;;27.52;17.42;;;;;;;7.58;54.67;96028.44;5090739;28;20016;-64
2021/12/20 08:59:34;;;;;;;27.52;17.20;;;;;;;7.21;55.80;96039.97;5090319;28;20170;-63
2021/12/20 09:02:00;;;;;;;28.85;18.10;;;;;;;7.35;55.58;96053.53;5091011;28;20031;-62
2021/12/20 09:04:26;;;;;;;27.08;16.83;;;;;;;8.44;53.38;96038.25;5085687;28;20035;-63
2021/12/20 09:06:53;;;;;;;25.92;16.38;;;;;;;9.13;51.79;96039.38;5088235;28;20032;-66
2021/12/20 09:09:18;;;;;;;26.67;16.88;;;;;;;8.74;51.56;96031.28;5090144;28;20054;-64
2021/12/20 09:11:46;;;;;;;28.80;17.15;;;;;;;9.27;50.42;96018.34;5072832;28;20108;-66
2021/12/20 09:14:13;;;;;;;24.35;16.60;;;;;;;8.86;50.06;95970.78;5072913;28;20035;-66
2021/12/20 09:16:39;;;;;;;20.45;15.90;;;;;;;9.35;50.46;96053.06;5090339;28;20028;-65
2021/12/20 09:19:05;;;;;;;23.27;15.57;;;;;;;9.74;48.75;96046.22;5084223;28;20109;-65
2021/12/20 09:21:30;;;;;;;22.70;15.55;;;;;;;8.75;50.10;96004.50;5087967;28;20115;-64
2021/12/20 09:23:56;;;;;;;23.50;15.95;;;;;;;7.99;52.46;96023.16;5090334;28;20024;-64
2021/12/20 09:26:22;;;;;;;25.80;15.70;;;;;;;7.23;54.78;96008.78;5090313;28;20024;-64
2021/12/20 09:28:48;;;;;;;25.60;16.42;;;;;;;7.40;54.88;96018.34;5090141;28;20031;-64
2021/12/20 09:31:13;;;;;;;23.48;16.17;;;;;;;8.01;54.02;96042.22;5072042;28;20381;-64
2021/12/20 09:33:38;;;;;;;26.77;17.17;;;;;;;8.36;53.05;96027.38;5087335;28;20105;-64
2021/12/20 09:36:05;;;;;;;25.35;16.95;;;;;;;7.54;54.75;96051.19;5087924;28;20677;-64
2021/12/20 09:38:31;;;;;;;26.00;16.08;;;;;;;8.18;54.35;96055.22;5090001;28;20039;-64
2021/12/20 09:43:36;;;;;;;26.88;15.68;;;;;;;8.09;53.71;96052.31;5090559;28;20032;-65
2021/12/20 09:46:03;;;;;;;26.17;16.88;;;;;;;7.51;55.00;96020.72;5090142;28;20062;-65
2021/12/20 09:48:28;;;;;;;27.48;17.52;;;;;;;7.19;55.08;95959.28;5069412;28;20065;-67
2021/12/20 09:50:57;;;;;;;25.30;16.98;;;;;;;9.04;52.62;96055.06;5085989;28;20024;-66
2021/12/20 09:53:22;;;;;;;27.65;17.65;;;;;;;7.73;54.16;96038.25;5089939;28;20126;-64
2021/12/20 09:55:51;;;;;;;29.45;17.95;;;;;;;7.49;54.42;95985.00;5089882;28;20099;-66
2021/12/20 09:58:19;;;;;;;29.38;16.52;;;;;;;7.30;55.71;96024.41;5089718;28;20023;-64
2021/12/20 10:00:47;;;;;;;30.90;17.70;;;;;;;7.82;54.53;96029.50;5071404;28;20024;-66
2021/12/20 10:03:13;;;;;;;38.03;17.48;;;;;;;7.04;55.68;96018.25;5089785;28;20081;-66
2021/12/20 10:05:41;;;;;;;26.83;16.88;;;;;;;7.40;55.79;96029.72;5084293;28;20078;-66
2021/12/20 10:08:14;;;;;;;27.05;16.67;;;;;;;7.46;54.98;96002.19;5089803;28;20023;-65
2021/12/20 10:10:46;;;;;;;34.25;17.77;;;;;;;8.49;53.07;96034.78;5089619;28;20024;-66
2021/12/20 10:13:47;;;;;;;26.00;15.82;;;;;;;7.21;56.44;96044.47;5089724;28;20039;-66
2021/12/20 10:16:17;;;;;;;30.27;16.65;;;;;;;7.11;56.70;96049.72;4987623;28;20239;-66
2021/12/20 10:18:42;;;;;;;26.77;17.33;;;;;;;7.95;54.28;96045.94;5067024;28;20051;-67
2021/12/20 10:21:07;;;;;;;27.63;17.23;;;;;;;8.04;53.66;96029.25;5079745;28;20550;-65
2021/12/20 10:23:40;;;;;;;27.98;15.85;;;;;;;7.71;54.45;96037.72;5089656;28;20035;-65
2021/12/20 10:26:13;;;;;;;27.98;16.92;;;;;;;8.05;54.15;96038.00;5089675;28;20140;-64
2021/12/20 10:28:40;;;;;;;31.40;17.45;;;;;;;8.62;52.86;96014.88;5089258;28;20036;-67
2021/12/20 10:31:07;;;;;;;31.35;17.48;;;;;;;7.89;54.03;96039.06;5089267;28;20477;-67
2021/12/20 10:33:34;;;;;;;27.02;17.35;;;;;;;8.12;54.20;96027.13;5088011;28;20040;-68
2021/12/20 10:36:06;;;;;;;29.23;18.15;;;;;;;8.35;52.74;95992.13;5085673;28;20059;-67
2021/12/20 10:38:38;;;;;;;32.97;17.98;;;;;;;9.07;52.44;96035.94;5087697;28;20031;-66
2021/12/20 10:41:05;;;;;;;;;;;;;;;9.01;51.48;96023.78;5031128;28;20056;-62
2021/12/20 10:43:36;;;;;;;25.88;16.83;;;;;;;9.23;52.16;96007.47;5049007;28;19913;-64
2021/12/20 10:46:15;;;;;;;30.95;17.08;;;;;;;9.70;48.91;96008.78;5049002;28;20592;-67
2021/12/20 10:48:41;;;;;;;28.23;16.70;;;;;;;7.81;54.30;95992.69;5049639;28;20044;-66
2021/12/20 10:51:21;;;;;;;32.83;18.25;;;;;;;8.26;53.69;96025.53;5086199;28;20035;-66
2021/12/20 10:53:51;;;;;;;23.67;14.98;;;;;;;7.82;54.20;96018.91;5087509;28;20546;-65
2021/12/20 10:56:18;;;;;;;28.60;16.40;;;;;;;7.80;53.43;95954.03;5089252;28;20028;-66
2021/12/20 10:58:43;;;;;;;26.65;16.75;;;;;;;9.50;50.82;96025.63;5088698;28;20470;-65
2021/12/20 11:01:21;;;;;;;27.30;16.63;;;;;;;9.45;51.04;96025.66;5089125;28;20036;-65
2021/12/20 11:04:11;;;;;;;31.35;17.48;;;;;;;9.50;50.12;95951.28;5069338;28;20119;-65
2021/12/20 11:06:44;;;;;;;26.77;16.15;;;;;;;8.79;51.28;95991.47;5084300;28;20077;-65
2021/12/20 11:09:21;;;;;;;24.42;15.77;;;;;;;8.60;51.91;95999.25;5073438;28;20058;-64
2021/12/20 11:12:09;;;;;;;25.40;16.10;;;;;;;9.31;50.03;96009.53;5088927;28;20497;-63
2021/12/20 11:14:39;;;;;;;21.77;14.30;;;;;;;7.64;52.24;95940.00;5089068;28;20034;-66
2021/12/20 11:17:06;;;;;;;25.73;16.02;;;;;;;8.55;50.51;95946.22;5089195;28;20024;-66
2021/12/20 11:19:40;;;;;;;26.10;14.88;;;;;;;9.01;49.79;96004.41;5079085;28;20469;-68
2021/12/20 11:22:07;;;;;;;25.58;15.02;;;;;;;8.41;51.91;96025.53;5072611;28;20093;-66
2021/12/20 11:24:46;;;;;;;23.52;14.57;;;;;;;10.06;49.24;96008.50;5088786;28;20089;-65
2021/12/20 11:27:15;;;;;;;21.30;13.35;;;;;;;9.43;49.27;96016.41;5089258;28;20031;-66
2021/12/20 11:29:42;;;;;;;23.45;15.15;;;;;;;9.37;49.95;96024.41;5087909;28;20050;-64
2021/12/20 11:32:09;;;;;;;22.67;14.93;;;;;;;7.76;52.88;95993.47;5088842;28;20028;-65
2021/12/20 11:34:37;;;;;;;20.63;14.80;;;;;;;8.92;50.33;95990.91;5081853;28;20020;-69
2021/12/20 11:37:04;;;;;;;23.90;16.25;;;;;;;9.46;48.94;95973.34;5068408;28;20032;-67
2021/12/20 11:39:30;;;;;;;25.05;16.42;;;;;;;9.58;48.95;96009.13;5090511;28;20377;-69
2021/12/20 11:41:56;;;;;;;23.77;16.40;;;;;;;9.00;49.73;95947.06;5092186;28;20358;-68